createdAt,value
2023-01-02T00:01:50.031Z,4.87
2023-01-02T00:05:58.789Z,6.30
2023-01-02T00:10:26.742Z,4.40
2023-01-02T00:14:35.238Z,5.93
2023-01-02T00:18:43.844Z,5.13
2023-01-02T00:22:52.467Z,4.80
2023-01-02T00:27:20.363Z,4.57
2023-01-02T00:31:29.040Z,4.53
2023-01-02T00:35:39.257Z,4.40
2023-01-02T00:39:47.869Z,4.40
2023-01-02T00:43:56.387Z,4.30
2023-01-02T00:48:05.103Z,4.10
2023-01-02T00:52:13.755Z,4.53
2023-01-02T00:56:22.344Z,4.10
2023-01-02T01:00:31.094Z,4.30
2023-01-02T01:04:39.745Z,4.57
2023-01-02T01:09:08.938Z,4.40
2023-01-02T01:13:17.584Z,4.20
2023-01-02T01:17:26.091Z,5.40
2023-01-02T01:21:34.727Z,4.20
2023-01-02T01:25:43.305Z,3.80
2023-01-02T01:29:52.009Z,4.80
2023-01-02T01:34:00.624Z,4.43
2023-01-02T01:38:09.141Z,3.60
2023-01-02T01:42:19.722Z,4.03
2023-01-02T01:46:48.118Z,4.50
2023-01-02T01:50:56.989Z,3.80
2023-01-02T01:55:15.855Z,4.00
2023-01-02T01:59:24.977Z,3.40
2023-01-02T02:03:35.684Z,3.30
2023-01-02T02:07:47.440Z,3.53
2023-01-02T02:11:56.738Z,3.90
2023-01-02T02:16:17.427Z,3.93
2023-01-02T02:20:32.133Z,3.97
2023-01-02T02:24:58.920Z,3.83
2023-01-02T02:29:45.027Z,4.07
2023-01-02T02:33:59.582Z,3.60
2023-01-02T02:38:16.951Z,4.30
2023-01-02T02:42:39.999Z,3.83
2023-01-02T02:46:51.698Z,3.67
2023-01-02T02:51:03.242Z,4.00
2023-01-02T02:55:20.577Z,3.87
2023-01-02T02:59:29.828Z,4.00
2023-01-02T03:03:38.389Z,4.80
2023-01-02T03:08:01.777Z,4.20
2023-01-02T03:12:22.485Z,4.77
2023-01-02T03:16:46.523Z,4.07
2023-01-02T03:21:01.013Z,4.07
2023-01-02T03:25:12.924Z,3.90
2023-01-02T03:29:24.873Z,3.77
2023-01-02T03:33:36.886Z,3.53
2023-01-02T03:37:48.556Z,3.73
2023-01-02T03:42:02.467Z,4.27
2023-01-02T03:46:20.228Z,3.70
2023-01-02T03:50:31.892Z,3.77
2023-01-02T03:54:40.687Z,3.87
2023-01-02T03:59:01.079Z,3.63
2023-01-02T04:03:27.916Z,3.50
2023-01-02T04:07:42.408Z,3.47
2023-01-02T04:11:54.046Z,4.90
2023-01-02T04:16:05.424Z,4.07
2023-01-02T04:20:20.048Z,4.77
2023-01-02T04:24:31.781Z,4.07
2023-01-02T04:28:40.513Z,4.00
2023-01-02T04:32:49.532Z,4.10
2023-01-02T04:36:58.177Z,3.93
2023-01-02T04:41:07.865Z,4.30
2023-01-02T04:45:16.661Z,3.83
2023-01-02T04:49:27.235Z,3.57
2023-01-02T04:53:35.863Z,3.47
2023-01-02T04:57:44.564Z,3.73
2023-01-02T05:01:53.683Z,4.20
2023-01-02T05:06:02.797Z,3.73
2023-01-02T05:10:11.520Z,3.77
2023-01-02T05:14:20.137Z,3.83
2023-01-02T05:18:32.635Z,3.27
2023-01-02T05:23:00.338Z,3.90
2023-01-02T05:27:28.312Z,4.10
2023-01-02T05:31:36.864Z,3.80
2023-01-02T05:35:45.378Z,3.77
2023-01-02T05:39:53.993Z,4.53
2023-01-02T05:44:02.485Z,3.77
2023-01-02T05:48:11.072Z,4.20
2023-01-02T05:52:19.652Z,3.50
2023-01-02T05:56:29.840Z,3.27
2023-01-02T06:00:38.403Z,3.60
2023-01-02T06:04:46.955Z,3.27
2023-01-02T06:08:55.623Z,3.60
2023-01-02T06:13:04.188Z,3.87
2023-01-02T06:17:12.776Z,3.77
2023-01-02T06:21:22.660Z,3.50
2023-01-02T06:25:31.270Z,3.60
2023-01-02T06:29:39.790Z,3.00
2023-01-02T06:34:00.323Z,3.70
2023-01-02T06:38:08.894Z,4.00
2023-01-02T06:42:20.220Z,3.57
2023-01-02T06:46:28.844Z,3.20
2023-01-02T06:50:37.889Z,3.40
2023-01-02T06:54:46.446Z,3.80
2023-01-02T06:58:55.017Z,3.07
2023-01-02T07:03:03.597Z,3.10
2023-01-02T07:07:12.172Z,3.50
2023-01-02T07:11:25.497Z,3.10
2023-01-02T07:15:36.559Z,3.43
2023-01-02T07:19:49.828Z,4.10
2023-01-02T07:23:55.219Z,3.57
2023-01-02T07:28:03.789Z,3.90
2023-01-02T07:32:12.395Z,3.90
2023-01-02T07:36:22.475Z,3.57
2023-01-02T07:40:32.451Z,3.50
2023-01-02T07:44:41.193Z,4.20
2023-01-02T07:48:50.569Z,3.40
2023-01-02T07:52:59.165Z,3.57
2023-01-02T07:57:07.821Z,4.17
2023-01-02T08:01:16.447Z,3.00
2023-01-02T08:05:25.180Z,3.40
2023-01-02T08:09:33.714Z,3.50
2023-01-02T08:13:42.858Z,3.13
2023-01-02T08:17:51.411Z,3.57
2023-01-02T08:22:00.002Z,3.23
2023-01-02T08:26:10.886Z,1.77
2023-01-02T08:30:19.618Z,1.70
2023-01-02T08:34:28.246Z,1.50
2023-01-02T08:38:37.315Z,1.63
2023-01-02T08:42:46.013Z,4.20
2023-01-02T08:46:54.606Z,2.00
2023-01-02T08:51:03.761Z,1.63
2023-01-02T08:55:13.407Z,2.37
2023-01-02T08:59:24.648Z,2.30
2023-01-02T09:03:33.237Z,2.47
2023-01-02T09:07:43.137Z,2.40
2023-01-02T09:11:53.048Z,4.37
2023-01-02T09:16:01.684Z,2.37
2023-01-02T09:20:10.902Z,1.77
2023-01-02T09:24:38.832Z,2.30
2023-01-02T09:28:47.864Z,1.87
2023-01-02T09:32:56.494Z,2.03
2023-01-02T09:37:05.081Z,2.50
2023-01-02T09:41:46.647Z,2.80
2023-01-02T09:45:58.352Z,3.13
2023-01-02T09:50:12.781Z,3.87
2023-01-02T09:54:32.911Z,3.67
2023-01-02T09:59:04.343Z,3.80
2023-01-02T10:03:31.180Z,3.80
2023-01-02T10:07:45.896Z,4.30
2023-01-02T10:12:14.158Z,3.73
2023-01-02T10:16:26.755Z,3.67
2023-01-02T10:20:38.472Z,4.10
2023-01-02T10:24:50.092Z,4.13
2023-01-02T10:29:10.261Z,4.93
2023-01-02T10:33:46.454Z,3.83
2023-01-02T10:37:56.416Z,4.00
2023-01-02T10:42:06.719Z,4.20
2023-01-02T10:46:15.373Z,3.77
2023-01-02T10:50:26.418Z,3.67
2023-01-02T10:54:55.048Z,3.40
2023-01-02T10:59:01.150Z,3.90
2023-01-02T11:03:26.090Z,4.63
2023-01-02T11:07:37.788Z,3.47
2023-01-02T11:11:57.445Z,3.70
2023-01-02T11:16:07.233Z,3.43
2023-01-02T11:20:22.648Z,3.17
2023-01-02T11:24:32.689Z,3.37
2023-01-02T11:28:42.664Z,4.20
2023-01-02T11:32:54.328Z,4.07
2023-01-02T11:37:05.269Z,3.70
2023-01-02T11:41:50.719Z,5.03
2023-01-02T11:45:59.486Z,4.13
2023-01-02T11:50:30.209Z,5.63
2023-01-02T11:54:41.842Z,4.60
2023-01-02T11:59:05.607Z,4.03
2023-01-02T12:03:26.787Z,5.00
2023-01-02T12:07:46.934Z,5.30
2023-01-02T12:12:19.881Z,5.37
2023-01-02T12:16:31.513Z,6.53
2023-01-02T12:20:43.170Z,5.10
2023-01-02T12:25:12.693Z,5.53
2023-01-02T12:29:48.223Z,5.77
2023-01-02T12:34:06.408Z,6.30
2023-01-02T12:38:22.487Z,5.00
2023-01-02T12:42:40.340Z,4.70
2023-01-02T12:46:54.518Z,5.17
2023-01-02T12:51:12.156Z,6.27
2023-01-02T12:55:46.381Z,8.27
2023-01-02T13:00:29.054Z,6.73
2023-01-02T13:04:40.693Z,8.37
2023-01-02T13:08:55.280Z,11.00
2023-01-02T13:13:04.319Z,7.77
2023-01-02T13:17:25.844Z,14.47
2023-01-02T13:21:47.573Z,11.37
2023-01-02T13:26:18.959Z,9.63
2023-01-02T13:30:40.096Z,13.50
2023-01-02T13:34:53.633Z,6.93
2023-01-02T13:39:08.484Z,7.90
2023-01-02T13:43:20.193Z,7.20
2023-01-02T13:47:49.698Z,6.10
2023-01-02T13:52:02.942Z,6.90
2023-01-02T13:56:19.905Z,5.83
2023-01-02T14:00:37.040Z,6.57
2023-01-02T14:04:45.756Z,4.43
2023-01-02T14:09:15.334Z,3.97
2023-01-02T14:13:30.032Z,5.33
2023-01-02T14:18:08.491Z,4.97
2023-01-02T14:22:19.069Z,4.27
2023-01-02T14:26:30.690Z,4.73
2023-01-02T14:30:41.767Z,4.20
2023-01-02T14:34:53.693Z,4.47
2023-01-02T14:39:02.437Z,4.23
2023-01-02T14:43:32.278Z,4.43
2023-01-02T14:48:03.609Z,3.63
2023-01-02T14:52:18.125Z,4.97
2023-01-02T14:56:35.476Z,4.00
2023-01-02T15:00:46.712Z,4.23
2023-01-02T15:05:02.920Z,4.93
2023-01-02T15:09:23.324Z,3.93
2023-01-02T15:13:33.471Z,5.17
2023-01-02T15:17:46.858Z,4.70
2023-01-02T15:21:56.211Z,6.00
2023-01-02T15:26:31.570Z,4.20
2023-01-02T15:30:25.400Z,6.20
2023-01-02T15:34:34.838Z,7.27
2023-01-02T15:38:44.916Z,3.83
2023-01-02T15:43:13.519Z,4.70
2023-01-02T15:47:27.952Z,3.70
2023-01-02T15:51:40.208Z,3.70
2023-01-02T15:55:44.023Z,3.90
2023-01-02T15:59:52.879Z,4.27
2023-01-02T16:04:05.778Z,5.30
2023-01-02T16:08:23.424Z,4.50
2023-01-02T16:12:32.970Z,4.83
2023-01-02T16:17:05.397Z,6.27
2023-01-02T16:21:35.076Z,4.77
2023-01-02T16:25:46.162Z,4.33
2023-01-02T16:29:55.406Z,6.40
2023-01-02T16:34:15.421Z,5.23
2023-01-02T16:38:28.228Z,5.20
2023-01-02T16:42:39.605Z,4.33
2023-01-02T16:46:49.963Z,4.07
2023-01-02T16:50:59.567Z,4.73
2023-01-02T16:55:10.374Z,3.40
2023-01-02T16:59:19.059Z,3.60
2023-01-02T17:03:28.630Z,2.90
2023-01-02T17:07:37.210Z,3.27
2023-01-02T17:11:49.542Z,2.63
2023-01-02T17:15:58.514Z,2.50
2023-01-02T17:20:09.425Z,3.20
2023-01-02T17:24:19.115Z,2.10
2023-01-02T17:28:27.705Z,2.27
2023-01-02T17:32:36.223Z,2.50
2023-01-02T17:36:45.342Z,2.53
2023-01-02T17:41:00.162Z,2.57
2023-01-02T17:45:09.807Z,3.13
2023-01-02T17:49:18.760Z,2.87
2023-01-02T17:53:27.406Z,2.83
2023-01-02T17:57:37.504Z,3.10
2023-01-02T18:01:47.359Z,2.97
2023-01-02T18:05:56.512Z,2.30
2023-01-02T18:10:09.333Z,2.60
2023-01-02T18:14:21.324Z,2.80
2023-01-02T18:18:32.593Z,3.10
2023-01-02T18:22:48.524Z,3.63
2023-01-02T18:31:16.391Z,3.33
2023-01-02T18:39:42.264Z,3.50
2023-01-02T18:43:54.230Z,3.33
2023-01-02T18:48:02.823Z,2.80
2023-01-02T18:52:24.254Z,3.67
2023-01-02T18:56:32.952Z,3.10
2023-01-02T19:00:41.611Z,5.77
2023-01-02T19:05:20.449Z,4.10
2023-01-02T19:09:48.429Z,4.80
2023-01-02T19:13:59.071Z,3.63
2023-01-02T19:18:19.777Z,4.13
2023-01-02T19:22:45.348Z,5.43
2023-01-02T19:26:56.947Z,5.90
2023-01-02T19:31:08.773Z,5.67
2023-01-02T19:35:39.393Z,4.67
2023-01-02T19:40:06.474Z,5.67
2023-01-02T19:44:15.080Z,6.73
2023-01-02T19:48:23.724Z,6.50
2023-01-02T19:52:32.342Z,6.43
2023-01-02T19:57:00.319Z,6.50
2023-01-02T20:01:08.991Z,6.20
2023-01-02T20:05:21.715Z,6.73
2023-01-02T20:09:29.586Z,8.00
2023-01-02T20:13:38.111Z,7.70
2023-01-02T20:18:08.928Z,7.30
2023-01-02T20:22:17.699Z,7.80
2023-01-02T20:26:26.331Z,6.90
2023-01-02T20:30:34.971Z,7.33
2023-01-02T20:34:43.541Z,8.10
2023-01-02T20:38:52.775Z,6.50
2023-01-02T20:43:01.347Z,7.80
2023-01-02T20:47:11.827Z,6.37
2023-01-02T20:51:20.451Z,6.73
2023-01-02T20:55:29.108Z,6.97
2023-01-02T20:59:37.905Z,5.40
2023-01-02T21:03:46.650Z,6.70
2023-01-02T21:07:57.656Z,6.13
2023-01-02T21:12:08.096Z,6.37
2023-01-02T21:16:16.946Z,6.77
2023-01-02T21:20:25.663Z,7.03
2023-01-02T21:24:53.650Z,6.63
2023-01-02T21:29:03.033Z,6.20
2023-01-02T21:33:16.652Z,6.03
2023-01-02T21:37:25.879Z,6.40
2023-01-02T21:41:52.528Z,6.43
2023-01-02T21:46:01.161Z,7.00
2023-01-02T21:50:10.405Z,6.60
2023-01-02T21:54:19.034Z,8.43
2023-01-02T21:58:27.595Z,5.30
2023-01-02T22:02:38.823Z,5.30
2023-01-02T22:07:29.406Z,7.20
2023-01-02T22:11:00.458Z,4.77
2023-01-02T22:15:12.046Z,5.50
2023-01-02T22:19:20.839Z,6.00
2023-01-02T22:23:29.690Z,6.43
2023-01-02T22:27:39.095Z,6.70
2023-01-02T22:31:48.900Z,7.07
2023-01-02T22:35:57.479Z,6.80
2023-01-02T22:40:06.585Z,7.47
2023-01-02T22:44:19.291Z,6.93
2023-01-02T22:48:47.247Z,6.67
2023-01-02T22:52:56.658Z,7.70
2023-01-02T22:57:08.283Z,8.10
2023-01-02T23:01:32.444Z,7.50
2023-01-02T23:05:41.429Z,8.53
2023-01-02T23:09:50.516Z,6.80
2023-01-02T23:14:00.308Z,6.40
2023-01-02T23:18:27.393Z,6.83
2023-01-02T23:22:35.940Z,7.07
2023-01-02T23:27:08.193Z,5.40
2023-01-02T23:31:16.942Z,6.20
2023-01-02T23:35:27.188Z,6.00
2023-01-02T23:39:36.228Z,4.90
2023-01-02T23:43:44.921Z,4.20
2023-01-02T23:47:53.482Z,4.80
2023-01-02T23:52:02.112Z,4.40
2023-01-02T23:56:19.795Z,5.70
